createdAt,value
2019-05-06T00:01:34.362Z,7.58
2019-05-06T00:04:04.868Z,5.90
2019-05-06T00:06:34.627Z,6.30
2019-05-06T00:09:05.148Z,5.65
2019-05-06T00:11:34.754Z,5.08
2019-05-06T00:14:04.103Z,7.08
2019-05-06T00:16:34.697Z,4.83
2019-05-06T00:19:04.859Z,5.37
2019-05-06T00:21:35.493Z,4.55
2019-05-06T00:24:04.576Z,5.87
2019-05-06T00:26:59.040Z,8.35
2019-05-06T00:29:30.272Z,5.95
2019-05-06T00:31:59.520Z,5.62
2019-05-06T00:34:28.571Z,4.72
2019-05-06T00:36:57.570Z,6.45
2019-05-06T00:39:50.545Z,4.08
2019-05-06T00:42:34.695Z,6.10
2019-05-06T00:45:04.468Z,4.17
2019-05-06T00:47:34.123Z,4.15
2019-05-06T00:50:04.222Z,5.45
2019-05-06T00:52:34.049Z,4.87
2019-05-06T00:55:04.152Z,5.25
2019-05-06T00:57:46.046Z,5.67
2019-05-06T01:00:16.636Z,5.37
2019-05-06T01:02:45.727Z,6.20
2019-05-06T01:05:16.128Z,5.55
2019-05-06T01:10:14.922Z,5.25
2019-05-06T01:12:48.474Z,6.17
2019-05-06T01:15:19.044Z,4.67
2019-05-06T01:17:47.959Z,4.42
2019-05-06T01:20:16.869Z,4.97
2019-05-06T01:22:45.815Z,5.00
2019-05-06T01:25:16.222Z,6.12
2019-05-06T01:30:13.808Z,4.35
2019-05-06T01:32:43.609Z,3.40
2019-05-06T01:35:14.083Z,5.65
2019-05-06T01:40:24.095Z,4.95
2019-05-06T01:42:58.204Z,4.97
2019-05-06T01:45:27.330Z,4.92
2019-05-06T01:47:56.562Z,4.22
2019-05-06T01:50:25.502Z,4.95
2019-05-06T01:52:54.519Z,3.83
2019-05-06T01:55:23.934Z,4.67
2019-05-06T01:57:54.553Z,5.00
2019-05-06T02:00:24.012Z,6.85
2019-05-06T02:02:54.727Z,6.40
2019-05-06T02:05:24.226Z,4.40
2019-05-06T02:07:55.029Z,3.95
2019-05-06T02:10:23.990Z,5.30
2019-05-06T02:12:54.026Z,4.72
2019-05-06T02:15:23.901Z,6.28
2019-05-06T02:17:55.047Z,3.72
2019-05-06T02:20:24.635Z,3.90
2019-05-06T02:23:06.862Z,4.10
2019-05-06T02:25:45.503Z,4.40
2019-05-06T02:28:14.610Z,3.77
2019-05-06T02:31:17.483Z,4.00
2019-05-06T02:33:50.812Z,5.30
2019-05-06T02:36:25.853Z,5.72
2019-05-06T02:38:55.982Z,4.83
2019-05-06T02:41:25.077Z,5.78
2019-05-06T02:43:54.475Z,4.95
2019-05-06T02:46:23.882Z,3.93
2019-05-06T02:48:59.973Z,4.00
2019-05-06T02:51:33.253Z,4.97
2019-05-06T02:54:03.216Z,3.83
2019-05-06T02:56:33.382Z,3.40
2019-05-06T02:59:03.907Z,4.75
2019-05-06T03:01:33.996Z,4.22
2019-05-06T03:04:04.494Z,4.28
2019-05-06T03:09:04.020Z,4.30
2019-05-06T03:11:33.275Z,7.28
2019-05-06T03:14:03.291Z,6.03
2019-05-06T03:16:33.346Z,5.33
2019-05-06T03:19:04.122Z,4.95
2019-05-06T03:21:54.738Z,5.47
2019-05-06T03:24:44.386Z,6.03
2019-05-06T03:27:14.348Z,5.93
2019-05-06T03:29:44.455Z,5.67
2019-05-06T03:32:16.430Z,4.72
2019-05-06T03:35:00.942Z,5.80
2019-05-06T03:37:16.750Z,4.95
2019-05-06T03:39:45.845Z,4.37
2019-05-06T03:42:16.736Z,3.10
2019-05-06T03:44:48.024Z,5.90
2019-05-06T03:47:54.070Z,3.55
2019-05-06T03:50:23.961Z,4.95
2019-05-06T03:52:55.954Z,5.55
2019-05-06T03:55:23.645Z,4.90
2019-05-06T03:57:53.906Z,7.20
2019-05-06T04:02:53.759Z,5.58
2019-05-06T04:05:23.836Z,5.42
2019-05-06T04:07:53.417Z,5.62
2019-05-06T04:10:22.975Z,4.00
2019-05-06T04:12:53.457Z,4.97
2019-05-06T04:15:26.451Z,4.67
2019-05-06T04:17:56.728Z,4.03
2019-05-06T04:20:34.916Z,4.78
2019-05-06T04:23:23.405Z,6.50
2019-05-06T04:28:57.650Z,6.17
2019-05-06T04:31:26.823Z,6.22
2019-05-06T04:34:12.355Z,4.67
2019-05-06T04:36:26.775Z,4.62
2019-05-06T04:38:55.823Z,4.15
2019-05-06T04:41:26.595Z,5.78
2019-05-06T04:43:55.462Z,4.53
2019-05-06T04:46:24.786Z,5.95
2019-05-06T04:48:54.118Z,5.92
2019-05-06T04:51:24.810Z,3.53
2019-05-06T04:53:53.937Z,7.40
2019-05-06T04:56:23.848Z,4.17
2019-05-06T04:58:53.779Z,6.10
2019-05-06T05:01:23.452Z,6.78
2019-05-06T05:03:55.893Z,8.63
2019-05-06T05:06:25.687Z,6.40
2019-05-06T05:08:54.603Z,6.72
2019-05-06T05:11:29.877Z,6.00
2019-05-06T05:14:14.934Z,6.12
2019-05-06T05:17:05.659Z,5.25
2019-05-06T05:19:34.786Z,7.42
2019-05-06T05:22:06.460Z,7.60
2019-05-06T05:24:36.151Z,6.45
2019-05-06T05:27:05.697Z,6.42
2019-05-06T05:29:34.818Z,8.30
2019-05-06T05:32:04.050Z,6.83
2019-05-06T05:34:40.242Z,5.75
2019-05-06T05:37:03.966Z,5.10
2019-05-06T05:39:33.347Z,14.80
2019-05-06T05:42:14.582Z,12.75
2019-05-06T05:44:44.512Z,10.78
2019-05-06T05:47:13.593Z,13.18
2019-05-06T05:50:04.945Z,9.28
2019-05-06T05:52:34.256Z,20.50
2019-05-06T05:55:03.301Z,15.05
2019-05-06T05:57:32.391Z,17.20
2019-05-06T06:00:03.910Z,21.02
2019-05-06T06:02:33.301Z,22.15
2019-05-06T06:05:02.673Z,14.90
2019-05-06T06:07:32.758Z,12.80
2019-05-06T06:10:09.988Z,12.45
2019-05-06T06:12:39.152Z,16.80
2019-05-06T06:15:22.306Z,24.47
2019-05-06T06:18:15.732Z,23.80
2019-05-06T06:21:22.002Z,22.48
2019-05-06T06:23:46.786Z,23.73
2019-05-06T06:26:15.831Z,21.42
2019-05-06T06:28:44.866Z,26.82
2019-05-06T06:31:33.260Z,18.92
2019-05-06T06:34:12.978Z,17.67
2019-05-06T06:36:52.584Z,20.50
2019-05-06T06:39:27.894Z,18.30
2019-05-06T06:41:56.820Z,26.33
2019-05-06T06:44:28.504Z,23.20
2019-05-06T06:46:57.401Z,20.20
2019-05-06T06:49:26.520Z,14.65
2019-05-06T06:51:55.407Z,22.55
2019-05-06T06:54:24.388Z,22.70
2019-05-06T06:57:12.772Z,15.58
2019-05-06T06:59:52.397Z,13.15
2019-05-06T07:02:46.734Z,32.50
2019-05-06T07:05:33.200Z,23.30
2019-05-06T07:08:02.356Z,19.30
2019-05-06T07:10:52.394Z,23.67
2019-05-06T07:13:23.128Z,12.85
2019-05-06T07:15:52.121Z,13.98
2019-05-06T07:18:22.609Z,13.70
2019-05-06T07:21:06.739Z,14.05
2019-05-06T07:23:36.298Z,12.88
2019-05-06T07:26:05.201Z,11.40
2019-05-06T07:28:34.436Z,19.02
2019-05-06T07:31:17.918Z,23.55
2019-05-06T07:33:34.717Z,12.95
2019-05-06T07:36:03.900Z,15.50
2019-05-06T07:38:33.066Z,9.65
2019-05-06T07:41:14.441Z,11.38
2019-05-06T07:43:53.975Z,10.25
2019-05-06T07:46:36.030Z,8.63
2019-05-06T07:49:04.815Z,12.68
2019-05-06T07:51:34.415Z,14.10
2019-05-06T07:54:04.652Z,11.75
2019-05-06T07:56:33.467Z,10.68
2019-05-06T07:59:08.490Z,10.93
2019-05-06T08:01:38.827Z,7.80
2019-05-06T08:06:36.229Z,7.03
2019-05-06T08:09:07.746Z,14.90
2019-05-06T08:11:36.921Z,12.10
2019-05-06T08:14:05.897Z,14.33
2019-05-06T08:16:37.387Z,15.15
2019-05-06T08:19:06.343Z,27.67
2019-05-06T08:21:38.123Z,42.73
2019-05-06T08:24:06.992Z,39.40
2019-05-06T08:26:35.915Z,41.65
2019-05-06T08:29:05.008Z,39.63
2019-05-06T08:31:33.931Z,34.30
2019-05-06T08:34:03.298Z,29.92
2019-05-06T08:36:53.416Z,95.53
2019-05-06T08:39:22.436Z,51.05
2019-05-06T08:41:52.883Z,60.85
2019-05-06T08:44:22.528Z,50.90
2019-05-06T08:46:53.282Z,52.55
2019-05-06T08:49:22.605Z,54.30
2019-05-06T08:52:12.957Z,41.40
2019-05-06T08:57:16.599Z,20.85
2019-05-06T08:59:45.563Z,17.32
2019-05-06T09:02:15.231Z,24.37
2019-05-06T09:04:44.160Z,33.88
2019-05-06T09:07:13.052Z,34.48
2019-05-06T09:09:42.271Z,36.23
2019-05-06T09:12:13.021Z,29.00
2019-05-06T09:14:43.148Z,32.85
2019-05-06T09:17:12.249Z,31.95
2019-05-06T09:19:42.643Z,21.57
2019-05-06T09:22:12.919Z,25.30
2019-05-06T09:27:16.488Z,15.83
2019-05-06T09:29:48.204Z,18.05
2019-05-06T09:32:24.014Z,9.65
2019-05-06T09:34:57.928Z,16.55
2019-05-06T09:37:26.809Z,24.75
2019-05-06T09:39:55.701Z,21.45
2019-05-06T09:42:24.631Z,24.60
2019-05-06T09:44:54.438Z,18.98
2019-05-06T09:47:53.014Z,28.50
2019-05-06T09:50:46.163Z,29.80
2019-05-06T09:53:23.177Z,31.80
2019-05-06T09:56:17.202Z,28.32
2019-05-06T09:58:46.265Z,35.73
2019-05-06T10:01:16.465Z,28.52
2019-05-06T10:03:45.396Z,17.00
2019-05-06T10:06:14.362Z,20.60
2019-05-06T10:08:43.432Z,21.15
2019-05-06T10:11:12.400Z,21.17
2019-05-06T10:13:43.095Z,17.57
2019-05-06T10:16:13.024Z,18.42
2019-05-06T10:18:42.404Z,28.98
2019-05-06T10:21:12.468Z,28.10
2019-05-06T10:23:42.328Z,31.27
2019-05-06T10:26:12.976Z,22.32
2019-05-06T10:28:54.518Z,27.22
2019-05-06T10:31:23.474Z,19.85
2019-05-06T10:34:13.814Z,19.32
2019-05-06T10:36:53.311Z,18.90
2019-05-06T10:39:23.035Z,29.95
2019-05-06T10:41:55.916Z,27.30
2019-05-06T10:44:43.241Z,29.55
2019-05-06T10:47:12.315Z,22.25
2019-05-06T10:49:42.069Z,27.42
2019-05-06T10:52:29.963Z,25.45
2019-05-06T10:54:58.841Z,24.25
2019-05-06T10:57:40.313Z,23.30
2019-05-06T11:00:08.138Z,17.12
2019-05-06T11:02:59.116Z,20.60
2019-05-06T11:05:28.145Z,22.02
2019-05-06T11:07:57.216Z,16.57
2019-05-06T11:10:30.009Z,22.05
2019-05-06T11:12:56.735Z,18.85
2019-05-06T11:15:25.808Z,14.78
2019-05-06T11:17:54.785Z,10.58
2019-05-06T11:20:25.118Z,12.68
2019-05-06T11:25:23.016Z,14.85
2019-05-06T11:27:52.800Z,13.53
2019-05-06T11:30:46.813Z,16.40
2019-05-06T11:33:34.655Z,6.97
2019-05-06T11:36:12.247Z,10.20
2019-05-06T11:38:42.956Z,11.95
2019-05-06T11:41:13.188Z,13.72
2019-05-06T11:43:42.808Z,8.70
2019-05-06T11:46:12.350Z,37.25
2019-05-06T11:48:43.118Z,44.65
2019-05-06T11:51:13.548Z,39.08
2019-05-06T11:53:42.559Z,124.80
2019-05-06T11:56:12.730Z,322.37
2019-05-06T11:58:53.293Z,228.07
2019-05-06T12:03:54.284Z,128.90
2019-05-06T12:06:23.326Z,50.23
2019-05-06T12:08:52.548Z,27.85
2019-05-06T12:11:23.666Z,31.82
2019-05-06T12:13:53.387Z,26.65
2019-05-06T12:16:25.918Z,25.25
2019-05-06T12:18:53.133Z,38.17
2019-05-06T12:21:23.121Z,37.05
2019-05-06T12:23:53.730Z,26.48
2019-05-06T12:26:23.084Z,44.05
2019-05-06T12:28:53.121Z,20.40
2019-05-06T12:33:53.295Z,8.50
2019-05-06T12:39:09.560Z,11.53
2019-05-06T12:42:15.664Z,7.58
2019-05-06T12:45:04.010Z,6.67
2019-05-06T12:47:42.647Z,11.08
2019-05-06T12:50:11.610Z,13.45
2019-05-06T12:52:43.826Z,10.03
2019-05-06T12:55:21.086Z,7.90
2019-05-06T12:57:43.283Z,12.13
2019-05-06T13:02:43.697Z,7.17
2019-05-06T13:05:13.191Z,10.30
2019-05-06T13:07:52.716Z,9.20
2019-05-06T13:10:23.225Z,7.28
2019-05-06T13:15:31.770Z,5.80
2019-05-06T13:18:06.370Z,5.95
2019-05-06T13:20:35.633Z,9.75
2019-05-06T13:23:20.748Z,6.42
2019-05-06T13:25:45.481Z,5.85
2019-05-06T13:30:44.328Z,7.30
2019-05-06T13:33:21.861Z,5.62
2019-05-06T13:35:52.613Z,7.50
2019-05-06T13:38:22.421Z,7.55
2019-05-06T13:40:56.670Z,7.83
2019-05-06T13:43:39.609Z,6.58
2019-05-06T13:46:19.087Z,6.47
2019-05-06T13:49:13.337Z,5.13
2019-05-06T13:51:46.558Z,4.55
2019-05-06T13:54:16.042Z,6.00
2019-05-06T13:56:48.443Z,8.98
2019-05-06T13:59:15.971Z,5.60
2019-05-06T14:02:16.141Z,6.28
2019-05-06T14:04:44.451Z,5.28
2019-05-06T14:07:13.570Z,5.40
2019-05-06T14:09:43.706Z,6.45
2019-05-06T14:12:12.931Z,7.03
2019-05-06T14:14:43.199Z,7.05
2019-05-06T14:19:42.848Z,5.50
2019-05-06T14:22:12.647Z,6.22
2019-05-06T14:25:18.542Z,5.05
2019-05-06T14:27:52.445Z,7.03
2019-05-06T14:30:39.684Z,8.23
2019-05-06T14:33:08.958Z,6.22
2019-05-06T14:35:38.077Z,6.65
2019-05-06T14:38:07.130Z,6.58
2019-05-06T14:40:55.106Z,6.95
2019-05-06T14:43:24.208Z,4.92
2019-05-06T14:45:53.097Z,4.80
2019-05-06T14:48:22.499Z,8.40
2019-05-06T14:50:56.854Z,7.78
2019-05-06T14:53:23.928Z,6.67
2019-05-06T14:55:54.125Z,8.98
2019-05-06T14:58:23.112Z,6.08
2019-05-06T15:00:53.371Z,5.60
2019-05-06T15:05:51.567Z,7.22
2019-05-06T15:08:22.543Z,10.25
2019-05-06T15:10:51.323Z,7.53
2019-05-06T15:13:22.746Z,8.53
2019-05-06T15:15:52.246Z,9.30
2019-05-06T15:18:22.466Z,5.42
2019-05-06T15:23:22.418Z,6.45
2019-05-06T15:25:52.465Z,8.95
2019-05-06T15:28:22.586Z,8.23
2019-05-06T15:31:07.863Z,6.62
2019-05-06T15:33:40.032Z,5.08
2019-05-06T15:36:15.782Z,7.87
2019-05-06T15:39:03.685Z,7.22
2019-05-06T15:41:32.626Z,6.17
2019-05-06T15:44:03.037Z,6.58
2019-05-06T15:46:32.387Z,8.30
2019-05-06T15:49:03.007Z,7.12
2019-05-06T15:51:34.976Z,6.12
2019-05-06T15:54:07.831Z,8.78
2019-05-06T15:56:36.807Z,6.35
2019-05-06T15:59:06.061Z,5.67
2019-05-06T16:01:35.380Z,5.78
2019-05-06T16:04:04.334Z,6.35
2019-05-06T16:06:33.311Z,4.83
2019-05-06T16:09:03.638Z,7.72
2019-05-06T16:14:02.903Z,4.62
2019-05-06T16:16:33.287Z,5.03
2019-05-06T16:21:33.433Z,3.15
2019-05-06T16:26:37.651Z,5.47
2019-05-06T16:29:06.966Z,6.00
2019-05-06T16:31:36.170Z,4.15
2019-05-06T16:34:05.115Z,4.83
2019-05-06T16:36:33.895Z,3.95
2019-05-06T16:39:04.307Z,5.83
2019-05-06T16:41:33.532Z,4.95
2019-05-06T16:44:02.489Z,6.03
2019-05-06T16:46:33.958Z,6.47
2019-05-06T16:49:02.480Z,4.12
2019-05-06T16:51:32.660Z,7.42
2019-05-06T16:54:02.198Z,6.70
2019-05-06T16:56:45.333Z,4.50
2019-05-06T16:59:14.313Z,4.80
2019-05-06T17:01:45.195Z,5.85
2019-05-06T17:04:24.732Z,4.80
2019-05-06T17:06:53.734Z,6.07
2019-05-06T17:09:27.169Z,4.37
2019-05-06T17:11:53.290Z,5.12
2019-05-06T17:14:22.373Z,4.85
2019-05-06T17:16:52.683Z,4.97
2019-05-06T17:21:52.392Z,5.12
2019-05-06T17:24:22.065Z,6.35
2019-05-06T17:26:55.933Z,4.73
2019-05-06T17:29:32.233Z,4.83
2019-05-06T17:32:12.017Z,6.35
2019-05-06T17:34:43.932Z,4.62
2019-05-06T17:37:42.074Z,4.97
2019-05-06T17:40:14.135Z,5.92
2019-05-06T17:42:43.494Z,5.47
2019-05-06T17:46:01.067Z,4.87
2019-05-06T17:48:48.551Z,5.70
2019-05-06T17:51:19.350Z,6.28
2019-05-06T17:53:52.322Z,5.95
2019-05-06T17:56:22.291Z,4.92
2019-05-06T17:58:53.238Z,5.35
2019-05-06T18:01:27.610Z,5.28
2019-05-06T18:03:56.617Z,6.80
2019-05-06T18:06:25.640Z,6.05
2019-05-06T18:08:54.712Z,6.47
2019-05-06T18:11:23.674Z,7.17
2019-05-06T18:13:52.706Z,6.15
2019-05-06T18:16:22.345Z,6.62
2019-05-06T18:18:52.338Z,6.60
2019-05-06T18:21:22.972Z,7.55
2019-05-06T18:23:52.387Z,5.85
2019-05-06T18:26:23.027Z,6.00
2019-05-06T18:28:52.783Z,7.05
2019-05-06T18:31:22.277Z,6.45
2019-05-06T18:33:52.749Z,6.60
2019-05-06T18:36:22.671Z,5.97
2019-05-06T18:38:52.595Z,6.20
2019-05-06T18:41:23.603Z,6.65
2019-05-06T18:43:53.504Z,6.80
2019-05-06T18:46:22.884Z,6.40
2019-05-06T18:48:52.568Z,6.83
2019-05-06T18:51:22.545Z,6.83
2019-05-06T18:53:52.514Z,6.05
2019-05-06T18:56:22.521Z,7.00
2019-05-06T18:58:53.057Z,7.28
2019-05-06T19:01:23.194Z,6.80
2019-05-06T19:03:59.165Z,7.00
2019-05-06T19:06:28.033Z,7.58
2019-05-06T19:09:12.658Z,7.45
2019-05-06T19:11:41.665Z,6.42
2019-05-06T19:14:12.569Z,8.03
2019-05-06T19:16:49.875Z,6.42
2019-05-06T19:19:12.469Z,7.80
2019-05-06T19:21:42.814Z,7.45
2019-05-06T19:26:42.922Z,8.90
2019-05-06T19:29:12.378Z,7.83
2019-05-06T19:31:44.775Z,7.87
2019-05-06T19:34:12.899Z,7.45
2019-05-06T19:36:42.338Z,6.33
2019-05-06T19:39:12.707Z,7.28
2019-05-06T19:44:09.957Z,8.00
2019-05-06T19:46:39.148Z,7.12
2019-05-06T19:49:08.280Z,7.30
2019-05-06T19:51:37.442Z,8.00
2019-05-06T19:54:06.311Z,8.20
2019-05-06T19:56:35.511Z,7.30
2019-05-06T19:59:04.396Z,8.68
2019-05-06T20:01:33.362Z,8.23
2019-05-06T20:04:02.649Z,8.15
2019-05-06T20:06:55.124Z,8.00
2019-05-06T20:09:43.166Z,7.37
2019-05-06T20:12:18.094Z,8.18
2019-05-06T20:14:47.007Z,8.10
2019-05-06T20:17:15.903Z,8.60
2019-05-06T20:19:45.072Z,8.78
2019-05-06T20:22:14.041Z,8.13
2019-05-06T20:24:43.069Z,8.08
2019-05-06T20:27:13.274Z,8.43
2019-05-06T20:32:12.307Z,7.58
2019-05-06T20:34:42.866Z,7.55
2019-05-06T20:39:43.371Z,7.83
2019-05-06T20:42:12.883Z,8.15
2019-05-06T20:44:43.375Z,8.37
2019-05-06T20:47:13.212Z,9.08
2019-05-06T20:49:43.193Z,9.00
2019-05-06T20:52:12.560Z,7.75
2019-05-06T20:54:42.626Z,7.47
2019-05-06T20:59:42.116Z,8.30
2019-05-06T21:02:12.406Z,9.00
2019-05-06T21:04:43.137Z,9.25
2019-05-06T21:07:12.581Z,9.80
2019-05-06T21:09:43.208Z,8.05
2019-05-06T21:12:12.420Z,9.18
2019-05-06T21:14:42.212Z,9.20
2019-05-06T21:17:12.382Z,7.83
2019-05-06T21:19:41.590Z,8.28
2019-05-06T21:22:13.075Z,9.30
2019-05-06T21:24:43.080Z,8.60
2019-05-06T21:27:12.375Z,10.15
2019-05-06T21:29:42.048Z,7.75
2019-05-06T21:32:11.165Z,8.13
2019-05-06T21:34:40.189Z,8.13
2019-05-06T21:37:09.149Z,8.65
2019-05-06T21:39:38.284Z,8.68
2019-05-06T21:42:08.274Z,8.53
2019-05-06T21:44:38.895Z,8.28
2019-05-06T21:47:07.918Z,8.80
2019-05-06T21:49:36.815Z,8.68
2019-05-06T21:52:05.902Z,8.65
2019-05-06T21:54:34.888Z,7.97
2019-05-06T21:57:03.942Z,9.58
2019-05-06T21:59:32.890Z,9.78
2019-05-06T22:02:02.359Z,9.28
2019-05-06T22:04:32.684Z,9.47
2019-05-06T22:09:32.340Z,8.73
2019-05-06T22:12:02.400Z,9.33
2019-05-06T22:14:32.550Z,9.08
2019-05-06T22:17:03.990Z,8.60
2019-05-06T22:19:32.416Z,7.50
2019-05-06T22:22:05.772Z,8.88
2019-05-06T22:24:48.110Z,9.10
2019-05-06T22:27:17.114Z,8.73
2019-05-06T22:29:46.143Z,8.95
2019-05-06T22:32:15.418Z,8.13
2019-05-06T22:34:44.540Z,7.92
2019-05-06T22:37:13.546Z,8.90
2019-05-06T22:39:43.604Z,8.95
2019-05-06T22:42:12.963Z,9.70
2019-05-06T22:44:42.902Z,8.85
2019-05-06T22:47:12.323Z,7.92
2019-05-06T22:49:41.136Z,10.05
2019-05-06T22:52:12.402Z,8.93
2019-05-06T22:54:43.160Z,9.30
2019-05-06T22:57:12.121Z,10.08
2019-05-06T22:59:42.778Z,9.13
2019-05-06T23:02:32.176Z,8.98
2019-05-06T23:05:04.175Z,9.80
2019-05-06T23:07:34.090Z,8.68
2019-05-06T23:12:32.529Z,8.00
2019-05-06T23:15:02.763Z,8.85
2019-05-06T23:17:34.176Z,8.15
2019-05-06T23:20:02.724Z,8.53
2019-05-06T23:22:32.102Z,9.73
2019-05-06T23:25:02.240Z,9.23
2019-05-06T23:27:31.373Z,9.75
2019-05-06T23:30:00.344Z,8.83
2019-05-06T23:32:29.417Z,9.25
2019-05-06T23:34:58.356Z,10.88
2019-05-06T23:37:25.884Z,8.88
2019-05-06T23:40:34.602Z,8.75
2019-05-06T23:43:39.725Z,8.05
2019-05-06T23:46:44.347Z,8.88
2019-05-06T23:49:48.843Z,7.85
2019-05-06T23:52:53.513Z,9.53
2019-05-06T23:55:58.142Z,9.05
2019-05-06T23:58:25.683Z,8.70
